sensor_id;sensor_type;location;lat;lon;timestamp;P1;durP1;ratioP1;P2;durP2;ratioP2
635;SDS011;302;50.206;8.196;2022-10-12T00:01:39;3.45;;;2.05;;
635;SDS011;302;50.206;8.196;2022-10-12T00:04:05;3.67;;;2.10;;
635;SDS011;302;50.206;8.196;2022-10-12T00:06:30;1.97;;;1.77;;
635;SDS011;302;50.206;8.196;2022-10-12T00:08:55;6.07;;;2.17;;
635;SDS011;302;50.206;8.196;2022-10-12T00:11:21;4.28;;;2.35;;
635;SDS011;302;50.206;8.196;2022-10-12T00:13:47;4.10;;;2.05;;
635;SDS011;302;50.206;8.196;2022-10-12T00:16:12;2.40;;;2.20;;
635;SDS011;302;50.206;8.196;2022-10-12T00:18:37;4.40;;;2.30;;
635;SDS011;302;50.206;8.196;2022-10-12T00:21:03;3.93;;;2.10;;
635;SDS011;302;50.206;8.196;2022-10-12T00:23:29;4.70;;;2.35;;
635;SDS011;302;50.206;8.196;2022-10-12T00:25:55;3.58;;;1.90;;
635;SDS011;302;50.206;8.196;2022-10-12T00:28:20;3.37;;;2.20;;
635;SDS011;302;50.206;8.196;2022-10-12T00:30:46;3.42;;;1.85;;
635;SDS011;302;50.206;8.196;2022-10-12T00:33:11;3.90;;;2.90;;
635;SDS011;302;50.206;8.196;2022-10-12T00:35:36;4.07;;;2.70;;
635;SDS011;302;50.206;8.196;2022-10-12T00:38:01;3.93;;;2.27;;
635;SDS011;302;50.206;8.196;2022-10-12T00:40:26;2.87;;;2.20;;
635;SDS011;302;50.206;8.196;2022-10-12T00:42:51;4.10;;;2.47;;
635;SDS011;302;50.206;8.196;2022-10-12T00:45:17;3.03;;;2.10;;
635;SDS011;302;50.206;8.196;2022-10-12T00:47:43;3.50;;;2.40;;
635;SDS011;302;50.206;8.196;2022-10-12T00:50:31;4.22;;;2.47;;
635;SDS011;302;50.206;8.196;2022-10-12T00:52:59;3.35;;;1.80;;
635;SDS011;302;50.206;8.196;2022-10-12T00:55:28;3.78;;;2.03;;
635;SDS011;302;50.206;8.196;2022-10-12T00:57:54;3.13;;;2.35;;
635;SDS011;302;50.206;8.196;2022-10-12T01:00:20;3.10;;;2.10;;
635;SDS011;302;50.206;8.196;2022-10-12T01:02:46;3.27;;;2.30;;
635;SDS011;302;50.206;8.196;2022-10-12T01:05:12;5.10;;;2.25;;
635;SDS011;302;50.206;8.196;2022-10-12T01:07:38;6.10;;;2.80;;
635;SDS011;302;50.206;8.196;2022-10-12T01:10:03;3.60;;;2.60;;
635;SDS011;302;50.206;8.196;2022-10-12T01:12:28;2.77;;;2.47;;
635;SDS011;302;50.206;8.196;2022-10-12T01:14:53;4.53;;;2.37;;
635;SDS011;302;50.206;8.196;2022-10-12T01:28:30;4.95;;;3.17;;
635;SDS011;302;50.206;8.196;2022-10-12T01:31:02;5.13;;;2.53;;
635;SDS011;302;50.206;8.196;2022-10-12T01:33:33;3.67;;;2.75;;
635;SDS011;302;50.206;8.196;2022-10-12T01:36:16;4.05;;;2.70;;
635;SDS011;302;50.206;8.196;2022-10-12T01:41:25;3.42;;;2.05;;
635;SDS011;302;50.206;8.196;2022-10-12T01:43:52;2.40;;;2.15;;
635;SDS011;302;50.206;8.196;2022-10-12T01:48:46;3.57;;;2.47;;
635;SDS011;302;50.206;8.196;2022-10-12T01:51:15;5.30;;;2.88;;
635;SDS011;302;50.206;8.196;2022-10-12T01:56:17;4.50;;;2.53;;
635;SDS011;302;50.206;8.196;2022-10-12T01:59:02;4.85;;;2.90;;
635;SDS011;302;50.206;8.196;2022-10-12T02:01:35;3.35;;;1.90;;
635;SDS011;302;50.206;8.196;2022-10-12T02:06:44;4.38;;;2.10;;
635;SDS011;302;50.206;8.196;2022-10-12T02:09:14;4.22;;;2.42;;
635;SDS011;302;50.206;8.196;2022-10-12T02:11:41;5.60;;;2.50;;
635;SDS011;302;50.206;8.196;2022-10-12T02:14:18;5.28;;;2.88;;
635;SDS011;302;50.206;8.196;2022-10-12T02:16:46;2.63;;;2.28;;
635;SDS011;302;50.206;8.196;2022-10-12T02:19:15;4.72;;;2.60;;
635;SDS011;302;50.206;8.196;2022-10-12T02:21:43;2.85;;;2.55;;
635;SDS011;302;50.206;8.196;2022-10-12T02:24:09;3.67;;;3.37;;
635;SDS011;302;50.206;8.196;2022-10-12T02:26:35;4.87;;;2.50;;
635;SDS011;302;50.206;8.196;2022-10-12T02:29:01;2.55;;;2.13;;
635;SDS011;302;50.206;8.196;2022-10-12T02:34:27;5.07;;;2.30;;
635;SDS011;302;50.206;8.196;2022-10-12T02:37:18;5.78;;;3.25;;
635;SDS011;302;50.206;8.196;2022-10-12T02:39:41;4.07;;;2.42;;
635;SDS011;302;50.206;8.196;2022-10-12T02:42:09;3.90;;;2.33;;
635;SDS011;302;50.206;8.196;2022-10-12T02:44:37;2.92;;;2.40;;
635;SDS011;302;50.206;8.196;2022-10-12T02:47:03;4.30;;;2.47;;
635;SDS011;302;50.206;8.196;2022-10-12T02:49:30;5.15;;;2.10;;
635;SDS011;302;50.206;8.196;2022-10-12T02:51:56;5.83;;;2.33;;
635;SDS011;302;50.206;8.196;2022-10-12T02:54:22;4.10;;;2.40;;
635;SDS011;302;50.206;8.196;2022-10-12T02:56:47;3.30;;;2.00;;
635;SDS011;302;50.206;8.196;2022-10-12T02:59:13;3.47;;;2.43;;
635;SDS011;302;50.206;8.196;2022-10-12T03:01:39;3.25;;;2.40;;
635;SDS011;302;50.206;8.196;2022-10-12T03:04:04;3.70;;;2.50;;
635;SDS011;302;50.206;8.196;2022-10-12T03:06:29;2.90;;;2.10;;
635;SDS011;302;50.206;8.196;2022-10-12T03:08:54;5.30;;;2.83;;
635;SDS011;302;50.206;8.196;2022-10-12T03:11:21;4.60;;;2.20;;
635;SDS011;302;50.206;8.196;2022-10-12T03:13:46;2.63;;;2.43;;
635;SDS011;302;50.206;8.196;2022-10-12T03:16:11;4.60;;;2.35;;
635;SDS011;302;50.206;8.196;2022-10-12T03:18:37;2.50;;;2.30;;
635;SDS011;302;50.206;8.196;2022-10-12T03:21:02;3.83;;;2.33;;
635;SDS011;302;50.206;8.196;2022-10-12T03:23:27;2.67;;;2.33;;
635;SDS011;302;50.206;8.196;2022-10-12T03:25:53;3.50;;;2.43;;
635;SDS011;302;50.206;8.196;2022-10-12T03:28:18;4.17;;;2.50;;
635;SDS011;302;50.206;8.196;2022-10-12T03:30:43;5.50;;;2.40;;
635;SDS011;302;50.206;8.196;2022-10-12T03:33:08;3.13;;;2.23;;
635;SDS011;302;50.206;8.196;2022-10-12T03:35:34;4.53;;;2.53;;
635;SDS011;302;50.206;8.196;2022-10-12T03:37:59;3.10;;;2.80;;
635;SDS011;302;50.206;8.196;2022-10-12T03:40:24;5.00;;;2.50;;
635;SDS011;302;50.206;8.196;2022-10-12T03:42:49;4.07;;;2.35;;
635;SDS011;302;50.206;8.196;2022-10-12T03:45:14;4.07;;;2.40;;
635;SDS011;302;50.206;8.196;2022-10-12T03:47:39;4.67;;;3.00;;
635;SDS011;302;50.206;8.196;2022-10-12T03:50:05;2.55;;;2.30;;
635;SDS011;302;50.206;8.196;2022-10-12T03:52:30;5.40;;;2.47;;
635;SDS011;302;50.206;8.196;2022-10-12T03:54:55;2.90;;;2.40;;
635;SDS011;302;50.206;8.196;2022-10-12T03:57:20;4.43;;;2.50;;
635;SDS011;302;50.206;8.196;2022-10-12T03:59:46;3.03;;;2.60;;
635;SDS011;302;50.206;8.196;2022-10-12T04:02:11;6.38;;;2.35;;
635;SDS011;302;50.206;8.196;2022-10-12T04:04:36;5.82;;;3.00;;
635;SDS011;302;50.206;8.196;2022-10-12T04:07:01;5.43;;;2.63;;
635;SDS011;302;50.206;8.196;2022-10-12T04:09:26;6.07;;;2.73;;
635;SDS011;302;50.206;8.196;2022-10-12T04:11:52;3.10;;;2.40;;
635;SDS011;302;50.206;8.196;2022-10-12T04:14:17;5.97;;;2.83;;
635;SDS011;302;50.206;8.196;2022-10-12T04:16:42;3.95;;;2.50;;
635;SDS011;302;50.206;8.196;2022-10-12T04:19:09;3.30;;;2.78;;
635;SDS011;302;50.206;8.196;2022-10-12T04:21:35;2.67;;;2.47;;
635;SDS011;302;50.206;8.196;2022-10-12T04:24:01;4.82;;;2.50;;
635;SDS011;302;50.206;8.196;2022-10-12T04:26:26;4.90;;;2.47;;
635;SDS011;302;50.206;8.196;2022-10-12T04:28:51;4.27;;;2.37;;
635;SDS011;302;50.206;8.196;2022-10-12T04:31:16;2.97;;;2.05;;
635;SDS011;302;50.206;8.196;2022-10-12T04:33:41;4.75;;;2.08;;
635;SDS011;302;50.206;8.196;2022-10-12T04:36:06;2.88;;;2.20;;
635;SDS011;302;50.206;8.196;2022-10-12T04:38:32;2.67;;;2.10;;
635;SDS011;302;50.206;8.196;2022-10-12T04:40:57;4.57;;;2.57;;
635;SDS011;302;50.206;8.196;2022-10-12T04:43:22;5.10;;;2.50;;
635;SDS011;302;50.206;8.196;2022-10-12T04:45:57;3.10;;;2.40;;
635;SDS011;302;50.206;8.196;2022-10-12T04:48:23;2.95;;;2.60;;
635;SDS011;302;50.206;8.196;2022-10-12T04:50:48;3.57;;;2.60;;
635;SDS011;302;50.206;8.196;2022-10-12T04:53:13;4.30;;;2.40;;
635;SDS011;302;50.206;8.196;2022-10-12T04:55:39;2.80;;;2.17;;
635;SDS011;302;50.206;8.196;2022-10-12T04:58:04;4.72;;;2.55;;
635;SDS011;302;50.206;8.196;2022-10-12T05:00:29;3.63;;;2.87;;
635;SDS011;302;50.206;8.196;2022-10-12T05:02:54;3.13;;;2.50;;
635;SDS011;302;50.206;8.196;2022-10-12T05:05:19;4.23;;;2.47;;
635;SDS011;302;50.206;8.196;2022-10-12T05:07:44;4.33;;;2.40;;
635;SDS011;302;50.206;8.196;2022-10-12T05:10:09;4.93;;;3.30;;
635;SDS011;302;50.206;8.196;2022-10-12T05:12:35;3.00;;;2.60;;
635;SDS011;302;50.206;8.196;2022-10-12T05:15:00;3.75;;;2.65;;
635;SDS011;302;50.206;8.196;2022-10-12T05:17:25;3.93;;;2.97;;
635;SDS011;302;50.206;8.196;2022-10-12T05:19:50;3.67;;;2.50;;
635;SDS011;302;50.206;8.196;2022-10-12T05:22:15;5.33;;;3.37;;
635;SDS011;302;50.206;8.196;2022-10-12T05:24:40;6.22;;;2.80;;
635;SDS011;302;50.206;8.196;2022-10-12T05:27:06;6.33;;;3.27;;
635;SDS011;302;50.206;8.196;2022-10-12T05:29:31;4.07;;;2.50;;
635;SDS011;302;50.206;8.196;2022-10-12T05:31:56;4.22;;;2.60;;
635;SDS011;302;50.206;8.196;2022-10-12T05:34:21;3.10;;;2.53;;
635;SDS011;302;50.206;8.196;2022-10-12T05:36:46;2.77;;;2.07;;
635;SDS011;302;50.206;8.196;2022-10-12T05:39:11;6.40;;;3.17;;
635;SDS011;302;50.206;8.196;2022-10-12T05:41:37;5.37;;;2.80;;
635;SDS011;302;50.206;8.196;2022-10-12T05:44:02;4.10;;;2.83;;
635;SDS011;302;50.206;8.196;2022-10-12T05:46:27;2.50;;;2.30;;
635;SDS011;302;50.206;8.196;2022-10-12T05:48:53;2.83;;;2.37;;
635;SDS011;302;50.206;8.196;2022-10-12T05:51:18;2.80;;;2.17;;
635;SDS011;302;50.206;8.196;2022-10-12T05:53:43;3.70;;;3.33;;
635;SDS011;302;50.206;8.196;2022-10-12T05:56:08;3.73;;;2.50;;
635;SDS011;302;50.206;8.196;2022-10-12T05:58:33;5.73;;;2.50;;
635;SDS011;302;50.206;8.196;2022-10-12T06:01:06;3.75;;;2.97;;
635;SDS011;302;50.206;8.196;2022-10-12T06:03:31;3.30;;;2.90;;
635;SDS011;302;50.206;8.196;2022-10-12T06:05:57;3.93;;;2.20;;
635;SDS011;302;50.206;8.196;2022-10-12T06:08:22;2.67;;;2.40;;
635;SDS011;302;50.206;8.196;2022-10-12T06:10:48;4.90;;;2.58;;
635;SDS011;302;50.206;8.196;2022-10-12T06:13:14;6.00;;;2.88;;
635;SDS011;302;50.206;8.196;2022-10-12T06:15:43;3.70;;;2.60;;
635;SDS011;302;50.206;8.196;2022-10-12T06:18:08;2.58;;;2.38;;
635;SDS011;302;50.206;8.196;2022-10-12T06:20:33;3.80;;;2.30;;
635;SDS011;302;50.206;8.196;2022-10-12T06:22:58;3.30;;;2.43;;
635;SDS011;302;50.206;8.196;2022-10-12T06:25:23;3.60;;;2.37;;
635;SDS011;302;50.206;8.196;2022-10-12T06:27:48;5.07;;;3.13;;
635;SDS011;302;50.206;8.196;2022-10-12T06:30:14;3.83;;;2.60;;
635;SDS011;302;50.206;8.196;2022-10-12T06:32:39;3.17;;;2.77;;
635;SDS011;302;50.206;8.196;2022-10-12T06:35:04;2.60;;;2.30;;
635;SDS011;302;50.206;8.196;2022-10-12T06:37:29;3.30;;;2.30;;
635;SDS011;302;50.206;8.196;2022-10-12T06:39:55;2.60;;;2.40;;
635;SDS011;302;50.206;8.196;2022-10-12T06:42:20;4.60;;;2.53;;
635;SDS011;302;50.206;8.196;2022-10-12T06:44:45;8.00;;;2.63;;
635;SDS011;302;50.206;8.196;2022-10-12T06:47:10;3.50;;;2.33;;
635;SDS011;302;50.206;8.196;2022-10-12T06:49:36;3.17;;;2.40;;
635;SDS011;302;50.206;8.196;2022-10-12T06:52:01;4.17;;;2.60;;
635;SDS011;302;50.206;8.196;2022-10-12T06:54:26;3.10;;;2.30;;
635;SDS011;302;50.206;8.196;2022-10-12T06:56:51;3.42;;;2.42;;
635;SDS011;302;50.206;8.196;2022-10-12T06:59:17;3.83;;;2.60;;
635;SDS011;302;50.206;8.196;2022-10-12T07:01:43;3.13;;;2.83;;
635;SDS011;302;50.206;8.196;2022-10-12T07:04:08;3.30;;;2.27;;
635;SDS011;302;50.206;8.196;2022-10-12T07:06:33;2.70;;;2.23;;
635;SDS011;302;50.206;8.196;2022-10-12T07:08:59;4.20;;;2.50;;
635;SDS011;302;50.206;8.196;2022-10-12T07:11:25;4.18;;;2.42;;
635;SDS011;302;50.206;8.196;2022-10-12T07:13:50;3.40;;;2.00;;
635;SDS011;302;50.206;8.196;2022-10-12T07:16:15;4.47;;;2.50;;
635;SDS011;302;50.206;8.196;2022-10-12T07:18:40;3.93;;;2.73;;
635;SDS011;302;50.206;8.196;2022-10-12T07:21:06;6.10;;;2.87;;
635;SDS011;302;50.206;8.196;2022-10-12T07:23:31;3.80;;;2.80;;
635;SDS011;302;50.206;8.196;2022-10-12T07:25:57;4.33;;;2.77;;
635;SDS011;302;50.206;8.196;2022-10-12T07:28:22;6.13;;;2.53;;
635;SDS011;302;50.206;8.196;2022-10-12T07:30:48;2.90;;;2.60;;
635;SDS011;302;50.206;8.196;2022-10-12T07:33:13;5.10;;;3.43;;
635;SDS011;302;50.206;8.196;2022-10-12T07:35:38;3.30;;;3.00;;
635;SDS011;302;50.206;8.196;2022-10-12T07:38:03;4.70;;;2.90;;
635;SDS011;302;50.206;8.196;2022-10-12T07:40:29;6.20;;;4.00;;
635;SDS011;302;50.206;8.196;2022-10-12T07:42:54;4.50;;;4.10;;
635;SDS011;302;50.206;8.196;2022-10-12T07:45:19;4.60;;;3.40;;
635;SDS011;302;50.206;8.196;2022-10-12T07:47:44;5.97;;;3.60;;
635;SDS011;302;50.206;8.196;2022-10-12T07:50:10;4.22;;;3.83;;
635;SDS011;302;50.206;8.196;2022-10-12T07:52:35;4.77;;;4.17;;
635;SDS011;302;50.206;8.196;2022-10-12T07:55:01;6.80;;;3.83;;
635;SDS011;302;50.206;8.196;2022-10-12T07:57:26;5.47;;;4.00;;
635;SDS011;302;50.206;8.196;2022-10-12T07:59:51;5.22;;;3.50;;
635;SDS011;302;50.206;8.196;2022-10-12T08:02:16;4.30;;;3.20;;
635;SDS011;302;50.206;8.196;2022-10-12T08:04:41;3.63;;;3.25;;
635;SDS011;302;50.206;8.196;2022-10-12T08:07:07;3.90;;;3.50;;
635;SDS011;302;50.206;8.196;2022-10-12T08:09:32;5.17;;;4.67;;
635;SDS011;302;50.206;8.196;2022-10-12T08:11:59;5.47;;;4.03;;
635;SDS011;302;50.206;8.196;2022-10-12T08:14:25;5.90;;;4.33;;
635;SDS011;302;50.206;8.196;2022-10-12T08:16:50;4.28;;;3.88;;
635;SDS011;302;50.206;8.196;2022-10-12T08:19:15;6.07;;;4.40;;
635;SDS011;302;50.206;8.196;2022-10-12T08:21:40;5.07;;;3.73;;
635;SDS011;302;50.206;8.196;2022-10-12T08:24:06;5.97;;;4.53;;
635;SDS011;302;50.206;8.196;2022-10-12T08:26:32;6.47;;;4.73;;
635;SDS011;302;50.206;8.196;2022-10-12T08:28:57;7.67;;;5.40;;
635;SDS011;302;50.206;8.196;2022-10-12T08:31:22;6.87;;;6.27;;
635;SDS011;302;50.206;8.196;2022-10-12T08:33:47;8.13;;;6.23;;
635;SDS011;302;50.206;8.196;2022-10-12T08:36:13;9.50;;;6.20;;
635;SDS011;302;50.206;8.196;2022-10-12T08:38:38;8.90;;;5.93;;
635;SDS011;302;50.206;8.196;2022-10-12T08:41:06;7.90;;;5.77;;
635;SDS011;302;50.206;8.196;2022-10-12T08:43:42;6.35;;;5.15;;
635;SDS011;302;50.206;8.196;2022-10-12T08:46:10;10.02;;;5.35;;
635;SDS011;302;50.206;8.196;2022-10-12T08:51:09;9.13;;;4.47;;
635;SDS011;302;50.206;8.196;2022-10-12T08:53:50;6.25;;;5.50;;
635;SDS011;302;50.206;8.196;2022-10-12T08:56:17;6.13;;;5.15;;
635;SDS011;302;50.206;8.196;2022-10-12T08:58:42;7.10;;;4.40;;
635;SDS011;302;50.206;8.196;2022-10-12T09:04:30;5.45;;;4.55;;
635;SDS011;302;50.206;8.196;2022-10-12T09:11:56;4.97;;;4.47;;
635;SDS011;302;50.206;8.196;2022-10-12T09:14:27;5.90;;;4.45;;
635;SDS011;302;50.206;8.196;2022-10-12T09:16:54;4.32;;;3.72;;
635;SDS011;302;50.206;8.196;2022-10-12T09:19:20;5.40;;;4.30;;
635;SDS011;302;50.206;8.196;2022-10-12T09:21:46;6.18;;;4.40;;
635;SDS011;302;50.206;8.196;2022-10-12T09:24:14;5.00;;;4.50;;
635;SDS011;302;50.206;8.196;2022-10-12T09:26:41;3.97;;;3.60;;
635;SDS011;302;50.206;8.196;2022-10-12T09:29:16;5.60;;;4.95;;
635;SDS011;302;50.206;8.196;2022-10-12T09:34:12;10.38;;;4.80;;
635;SDS011;302;50.206;8.196;2022-10-12T09:36:39;6.60;;;4.53;;
635;SDS011;302;50.206;8.196;2022-10-12T09:39:06;7.55;;;4.20;;
635;SDS011;302;50.206;8.196;2022-10-12T09:41:36;6.55;;;4.60;;
635;SDS011;302;50.206;8.196;2022-10-12T09:44:03;7.03;;;4.10;;
635;SDS011;302;50.206;8.196;2022-10-12T09:46:38;7.40;;;4.25;;
635;SDS011;302;50.206;8.196;2022-10-12T09:49:05;5.45;;;4.20;;
635;SDS011;302;50.206;8.196;2022-10-12T09:51:30;5.03;;;4.03;;
635;SDS011;302;50.206;8.196;2022-10-12T09:53:56;5.37;;;4.37;;
635;SDS011;302;50.206;8.196;2022-10-12T09:59:45;5.07;;;4.22;;
635;SDS011;302;50.206;8.196;2022-10-12T10:01:58;6.47;;;4.10;;
635;SDS011;302;50.206;8.196;2022-10-12T10:04:27;7.13;;;4.63;;
635;SDS011;302;50.206;8.196;2022-10-12T10:06:53;5.70;;;5.13;;
635;SDS011;302;50.206;8.196;2022-10-12T10:09:25;7.70;;;6.77;;
635;SDS011;302;50.206;8.196;2022-10-12T10:11:51;6.25;;;5.65;;
635;SDS011;302;50.206;8.196;2022-10-12T10:14:16;8.83;;;6.07;;
635;SDS011;302;50.206;8.196;2022-10-12T10:16:45;7.63;;;6.60;;
635;SDS011;302;50.206;8.196;2022-10-12T10:19:13;6.97;;;5.15;;
635;SDS011;302;50.206;8.196;2022-10-12T10:21:40;6.03;;;5.38;;
635;SDS011;302;50.206;8.196;2022-10-12T10:24:06;8.27;;;5.97;;
635;SDS011;302;50.206;8.196;2022-10-12T10:27:25;8.02;;;6.25;;
635;SDS011;302;50.206;8.196;2022-10-12T10:29:40;8.70;;;6.05;;
635;SDS011;302;50.206;8.196;2022-10-12T10:32:28;7.22;;;6.53;;
635;SDS011;302;50.206;8.196;2022-10-12T10:37:35;9.00;;;7.22;;
635;SDS011;302;50.206;8.196;2022-10-12T10:40:02;7.10;;;6.40;;
635;SDS011;302;50.206;8.196;2022-10-12T10:42:28;7.50;;;6.37;;
635;SDS011;302;50.206;8.196;2022-10-12T10:44:59;7.13;;;6.40;;
635;SDS011;302;50.206;8.196;2022-10-12T10:47:25;6.57;;;5.97;;
635;SDS011;302;50.206;8.196;2022-10-12T10:49:53;6.57;;;5.77;;
635;SDS011;302;50.206;8.196;2022-10-12T10:54:44;6.97;;;6.27;;
635;SDS011;302;50.206;8.196;2022-10-12T10:57:14;9.20;;;6.30;;
635;SDS011;302;50.206;8.196;2022-10-12T11:02:17;7.63;;;5.70;;
635;SDS011;302;50.206;8.196;2022-10-12T11:04:44;8.48;;;7.20;;
635;SDS011;302;50.206;8.196;2022-10-12T11:07:15;7.47;;;5.90;;
635;SDS011;302;50.206;8.196;2022-10-12T11:09:43;6.82;;;6.22;;
635;SDS011;302;50.206;8.196;2022-10-12T11:12:16;6.72;;;6.07;;
635;SDS011;302;50.206;8.196;2022-10-12T11:14:44;6.15;;;5.55;;
635;SDS011;302;50.206;8.196;2022-10-12T11:17:21;6.05;;;5.55;;
635;SDS011;302;50.206;8.196;2022-10-12T11:27:38;9.05;;;5.90;;
635;SDS011;302;50.206;8.196;2022-10-12T11:30:14;8.38;;;5.97;;
635;SDS011;302;50.206;8.196;2022-10-12T11:32:44;6.93;;;5.57;;
635;SDS011;302;50.206;8.196;2022-10-12T11:35:30;7.35;;;5.50;;
635;SDS011;302;50.206;8.196;2022-10-12T11:38:00;6.72;;;5.45;;
635;SDS011;302;50.206;8.196;2022-10-12T11:40:36;6.75;;;6.03;;
635;SDS011;302;50.206;8.196;2022-10-12T11:43:05;6.95;;;5.90;;
635;SDS011;302;50.206;8.196;2022-10-12T11:45:35;6.55;;;5.95;;
635;SDS011;302;50.206;8.196;2022-10-12T11:48:03;7.22;;;6.55;;
635;SDS011;302;50.206;8.196;2022-10-12T11:50:38;6.30;;;5.60;;
635;SDS011;302;50.206;8.196;2022-10-12T11:53:09;7.97;;;5.90;;
635;SDS011;302;50.206;8.196;2022-10-12T11:58:05;9.60;;;5.80;;
635;SDS011;302;50.206;8.196;2022-10-12T12:00:36;7.60;;;6.90;;
635;SDS011;302;50.206;8.196;2022-10-12T12:05:45;11.57;;;6.25;;
635;SDS011;302;50.206;8.196;2022-10-12T12:11:16;10.85;;;6.45;;
635;SDS011;302;50.206;8.196;2022-10-12T12:13:43;10.93;;;7.22;;
635;SDS011;302;50.206;8.196;2022-10-12T12:21:20;9.45;;;7.70;;
635;SDS011;302;50.206;8.196;2022-10-12T12:23:52;8.70;;;7.13;;
635;SDS011;302;50.206;8.196;2022-10-12T12:26:18;9.40;;;6.78;;
635;SDS011;302;50.206;8.196;2022-10-12T12:28:45;8.88;;;7.20;;
635;SDS011;302;50.206;8.196;2022-10-12T12:33:49;9.68;;;7.63;;
635;SDS011;302;50.206;8.196;2022-10-12T12:36:34;8.50;;;6.97;;
635;SDS011;302;50.206;8.196;2022-10-12T12:39:00;7.35;;;6.53;;
635;SDS011;302;50.206;8.196;2022-10-12T12:41:27;8.90;;;6.10;;
635;SDS011;302;50.206;8.196;2022-10-12T12:44:33;7.20;;;6.50;;
635;SDS011;302;50.206;8.196;2022-10-12T12:49:24;8.25;;;6.93;;
635;SDS011;302;50.206;8.196;2022-10-12T12:51:49;8.18;;;6.50;;
635;SDS011;302;50.206;8.196;2022-10-12T12:54:20;9.65;;;6.40;;
635;SDS011;302;50.206;8.196;2022-10-12T12:56:56;7.43;;;5.60;;
635;SDS011;302;50.206;8.196;2022-10-12T12:59:43;7.23;;;6.50;;
635;SDS011;302;50.206;8.196;2022-10-12T13:04:41;10.60;;;6.83;;
635;SDS011;302;50.206;8.196;2022-10-12T13:12:27;9.20;;;6.50;;
635;SDS011;302;50.206;8.196;2022-10-12T13:17:39;9.10;;;7.30;;
635;SDS011;302;50.206;8.196;2022-10-12T13:20:14;7.57;;;6.40;;
635;SDS011;302;50.206;8.196;2022-10-12T13:22:40;7.70;;;6.90;;
635;SDS011;302;50.206;8.196;2022-10-12T13:25:07;7.13;;;6.00;;
635;SDS011;302;50.206;8.196;2022-10-12T13:27:44;8.13;;;6.33;;
635;SDS011;302;50.206;8.196;2022-10-12T13:35:33;7.70;;;6.57;;
635;SDS011;302;50.206;8.196;2022-10-12T13:40:38;7.53;;;6.65;;
635;SDS011;302;50.206;8.196;2022-10-12T13:43:17;7.50;;;6.75;;
635;SDS011;302;50.206;8.196;2022-10-12T13:45:43;7.32;;;6.57;;
635;SDS011;302;50.206;8.196;2022-10-12T13:48:10;7.47;;;6.87;;
635;SDS011;302;50.206;8.196;2022-10-12T13:50:39;11.20;;;6.95;;
635;SDS011;302;50.206;8.196;2022-10-12T13:53:13;10.38;;;7.68;;
635;SDS011;302;50.206;8.196;2022-10-12T13:55:38;8.60;;;7.00;;
635;SDS011;302;50.206;8.196;2022-10-12T13:58:04;14.00;;;8.40;;
635;SDS011;302;50.206;8.196;2022-10-12T14:00:29;7.60;;;6.80;;
635;SDS011;302;50.206;8.196;2022-10-12T14:02:55;10.80;;;8.23;;
635;SDS011;302;50.206;8.196;2022-10-12T14:05:21;7.13;;;6.50;;
635;SDS011;302;50.206;8.196;2022-10-12T14:07:47;8.07;;;7.25;;
635;SDS011;302;50.206;8.196;2022-10-12T14:12:41;7.18;;;6.57;;
635;SDS011;302;50.206;8.196;2022-10-12T14:15:09;8.90;;;8.00;;
635;SDS011;302;50.206;8.196;2022-10-12T14:17:40;9.10;;;8.00;;
635;SDS011;302;50.206;8.196;2022-10-12T14:20:26;8.93;;;8.18;;
635;SDS011;302;50.206;8.196;2022-10-12T14:22:51;7.82;;;7.03;;
635;SDS011;302;50.206;8.196;2022-10-12T14:25:21;8.30;;;7.60;;
635;SDS011;302;50.206;8.196;2022-10-12T14:27:51;8.32;;;7.50;;
635;SDS011;302;50.206;8.196;2022-10-12T14:30:24;10.32;;;7.70;;
635;SDS011;302;50.206;8.196;2022-10-12T14:32:53;8.65;;;7.95;;
635;SDS011;302;50.206;8.196;2022-10-12T14:35:20;7.80;;;6.95;;
635;SDS011;302;50.206;8.196;2022-10-12T14:37:45;9.65;;;8.07;;
635;SDS011;302;50.206;8.196;2022-10-12T14:45:23;7.93;;;7.22;;
635;SDS011;302;50.206;8.196;2022-10-12T14:47:49;9.07;;;8.20;;
635;SDS011;302;50.206;8.196;2022-10-12T14:50:15;9.33;;;8.43;;
635;SDS011;302;50.206;8.196;2022-10-12T14:52:42;11.75;;;9.10;;
635;SDS011;302;50.206;8.196;2022-10-12T14:55:12;9.75;;;8.30;;
635;SDS011;302;50.206;8.196;2022-10-12T14:57:39;11.68;;;9.55;;
635;SDS011;302;50.206;8.196;2022-10-12T15:00:05;11.87;;;10.67;;
635;SDS011;302;50.206;8.196;2022-10-12T15:02:30;10.30;;;8.50;;
635;SDS011;302;50.206;8.196;2022-10-12T15:04:56;9.93;;;8.82;;
635;SDS011;302;50.206;8.196;2022-10-12T15:07:26;10.27;;;8.77;;
635;SDS011;302;50.206;8.196;2022-10-12T15:09:51;13.20;;;10.90;;
635;SDS011;302;50.206;8.196;2022-10-12T15:12:18;12.90;;;10.10;;
635;SDS011;302;50.206;8.196;2022-10-12T15:14:43;10.75;;;9.60;;
635;SDS011;302;50.206;8.196;2022-10-12T15:17:09;10.77;;;9.60;;
635;SDS011;302;50.206;8.196;2022-10-12T15:19:34;10.33;;;9.33;;
635;SDS011;302;50.206;8.196;2022-10-12T15:21:59;10.82;;;9.82;;
635;SDS011;302;50.206;8.196;2022-10-12T15:24:25;9.80;;;8.60;;
635;SDS011;302;50.206;8.196;2022-10-12T15:26:50;10.20;;;8.88;;
635;SDS011;302;50.206;8.196;2022-10-12T15:29:15;11.45;;;9.50;;
635;SDS011;302;50.206;8.196;2022-10-12T15:31:40;10.43;;;9.23;;
635;SDS011;302;50.206;8.196;2022-10-12T15:34:10;9.87;;;8.87;;
635;SDS011;302;50.206;8.196;2022-10-12T15:36:36;8.80;;;8.00;;
635;SDS011;302;50.206;8.196;2022-10-12T15:39:01;9.80;;;8.90;;
635;SDS011;302;50.206;8.196;2022-10-12T15:41:26;10.43;;;9.27;;
635;SDS011;302;50.206;8.196;2022-10-12T15:43:51;9.33;;;8.43;;
635;SDS011;302;50.206;8.196;2022-10-12T15:46:16;11.30;;;8.60;;
635;SDS011;302;50.206;8.196;2022-10-12T15:48:42;12.93;;;9.70;;
635;SDS011;302;50.206;8.196;2022-10-12T15:51:12;9.93;;;8.80;;
635;SDS011;302;50.206;8.196;2022-10-12T15:53:40;10.77;;;9.57;;
635;SDS011;302;50.206;8.196;2022-10-12T15:56:06;12.93;;;9.43;;
635;SDS011;302;50.206;8.196;2022-10-12T15:58:36;10.60;;;9.60;;
635;SDS011;302;50.206;8.196;2022-10-12T16:01:01;14.70;;;10.50;;
635;SDS011;302;50.206;8.196;2022-10-12T16:03:26;11.93;;;10.80;;
635;SDS011;302;50.206;8.196;2022-10-12T16:05:55;11.05;;;9.95;;
635;SDS011;302;50.206;8.196;2022-10-12T16:08:20;10.68;;;9.65;;
635;SDS011;302;50.206;8.196;2022-10-12T16:10:45;12.75;;;10.32;;
635;SDS011;302;50.206;8.196;2022-10-12T16:13:12;11.02;;;9.90;;
635;SDS011;302;50.206;8.196;2022-10-12T16:15:38;12.83;;;10.50;;
635;SDS011;302;50.206;8.196;2022-10-12T16:18:04;11.00;;;10.00;;
635;SDS011;302;50.206;8.196;2022-10-12T16:20:30;10.70;;;9.70;;
635;SDS011;302;50.206;8.196;2022-10-12T16:22:55;10.50;;;9.50;;
635;SDS011;302;50.206;8.196;2022-10-12T16:25:21;10.57;;;9.63;;
635;SDS011;302;50.206;8.196;2022-10-12T16:27:48;10.35;;;9.45;;
635;SDS011;302;50.206;8.196;2022-10-12T16:30:13;12.80;;;10.10;;
635;SDS011;302;50.206;8.196;2022-10-12T16:32:39;11.43;;;9.50;;
635;SDS011;302;50.206;8.196;2022-10-12T16:35:04;12.03;;;9.67;;
635;SDS011;302;50.206;8.196;2022-10-12T16:37:30;11.00;;;9.97;;
635;SDS011;302;50.206;8.196;2022-10-12T16:39:55;9.77;;;8.97;;
635;SDS011;302;50.206;8.196;2022-10-12T16:42:20;10.43;;;9.43;;
635;SDS011;302;50.206;8.196;2022-10-12T16:44:45;11.23;;;10.03;;
635;SDS011;302;50.206;8.196;2022-10-12T16:47:11;12.37;;;9.23;;
635;SDS011;302;50.206;8.196;2022-10-12T16:49:36;10.27;;;9.27;;
635;SDS011;302;50.206;8.196;2022-10-12T16:52:02;9.93;;;8.93;;
635;SDS011;302;50.206;8.196;2022-10-12T16:54:27;13.98;;;10.70;;
635;SDS011;302;50.206;8.196;2022-10-12T16:56:53;14.47;;;10.67;;
635;SDS011;302;50.206;8.196;2022-10-12T16:59:18;11.70;;;9.03;;
635;SDS011;302;50.206;8.196;2022-10-12T17:01:43;10.37;;;9.47;;
635;SDS011;302;50.206;8.196;2022-10-12T17:04:11;11.03;;;9.80;;
635;SDS011;302;50.206;8.196;2022-10-12T17:06:37;10.77;;;9.35;;
635;SDS011;302;50.206;8.196;2022-10-12T17:09:02;10.80;;;9.50;;
635;SDS011;302;50.206;8.196;2022-10-12T17:11:27;12.43;;;11.17;;
635;SDS011;302;50.206;8.196;2022-10-12T17:13:53;10.80;;;9.70;;
635;SDS011;302;50.206;8.196;2022-10-12T17:16:19;12.43;;;10.57;;
635;SDS011;302;50.206;8.196;2022-10-12T17:19:03;13.57;;;12.30;;
635;SDS011;302;50.206;8.196;2022-10-12T17:21:29;13.67;;;10.50;;
635;SDS011;302;50.206;8.196;2022-10-12T17:23:55;13.37;;;11.97;;